createdAt,value
2022-12-11T00:00:43.768Z,14.93
2022-12-11T00:03:15.919Z,16.25
2022-12-11T00:05:46.054Z,18.98
2022-12-11T00:08:15.658Z,27.42
2022-12-11T00:10:49.761Z,27.80
2022-12-11T00:13:19.512Z,18.20
2022-12-11T00:15:47.863Z,17.20
2022-12-11T00:18:16.310Z,18.30
2022-12-11T00:20:44.673Z,18.50
2022-12-11T00:23:13.396Z,16.60
2022-12-11T00:25:44.059Z,18.52
2022-12-11T00:28:12.864Z,16.42
2022-12-11T00:30:43.921Z,15.52
2022-12-11T00:33:13.132Z,16.40
2022-12-11T00:35:41.897Z,15.75
2022-12-11T00:38:10.988Z,19.27
2022-12-11T00:40:39.655Z,20.63
2022-12-11T00:43:08.101Z,21.27
2022-12-11T00:45:38.299Z,21.00
2022-12-11T00:48:09.120Z,17.33
2022-12-11T00:50:37.795Z,17.27
2022-12-11T00:53:07.887Z,16.23
2022-12-11T00:55:39.175Z,15.13
2022-12-11T00:58:08.169Z,16.38
2022-12-11T01:00:36.567Z,18.25
2022-12-11T01:03:05.485Z,19.17
2022-12-11T01:05:35.458Z,20.85
2022-12-11T01:08:04.238Z,23.58
2022-12-11T01:10:31.795Z,17.92
2022-12-11T01:13:02.264Z,19.73
2022-12-11T01:15:32.461Z,20.38
2022-12-11T01:18:00.902Z,16.70
2022-12-11T01:20:29.710Z,21.27
2022-12-11T01:23:01.223Z,18.05
2022-12-11T01:25:30.747Z,18.17
2022-12-11T01:27:59.092Z,20.20
2022-12-11T01:30:28.363Z,16.20
2022-12-11T01:32:56.736Z,17.10
2022-12-11T01:35:25.255Z,16.88
2022-12-11T01:37:53.715Z,15.48
2022-12-11T01:40:24.310Z,16.98
2022-12-11T01:42:52.722Z,16.35
2022-12-11T01:45:38.941Z,16.23
2022-12-11T01:48:11.024Z,17.83
2022-12-11T01:50:43.928Z,17.17
2022-12-11T01:53:18.907Z,17.98
2022-12-11T01:55:50.096Z,17.75
2022-12-11T01:58:20.103Z,17.95
2022-12-11T02:00:48.783Z,17.42
2022-12-11T02:03:17.175Z,18.92
2022-12-11T02:05:45.670Z,19.13
2022-12-11T02:08:14.867Z,18.33
2022-12-11T02:11:02.849Z,18.02
2022-12-11T02:13:40.949Z,19.02
2022-12-11T02:16:18.511Z,19.80
2022-12-11T02:18:55.244Z,19.15
2022-12-11T02:21:28.335Z,18.38
2022-12-11T02:24:23.581Z,19.27
2022-12-11T02:27:20.028Z,18.27
2022-12-11T02:29:55.585Z,22.33
2022-12-11T02:32:28.485Z,25.67
2022-12-11T02:35:01.555Z,21.23
2022-12-11T02:37:33.890Z,20.40
2022-12-11T02:40:06.025Z,19.00
2022-12-11T02:42:35.651Z,18.70
2022-12-11T02:45:09.052Z,19.55
2022-12-11T02:50:12.683Z,17.25
2022-12-11T02:52:42.916Z,16.77
2022-12-11T02:55:14.114Z,17.55
2022-12-11T02:57:47.150Z,17.77
2022-12-11T03:00:19.089Z,17.88
2022-12-11T03:02:47.756Z,16.05
2022-12-11T03:05:16.956Z,21.08
2022-12-11T03:07:46.550Z,19.70
2022-12-11T03:10:19.172Z,23.02
2022-12-11T03:12:53.734Z,19.90
2022-12-11T03:15:33.190Z,20.90
2022-12-11T03:18:10.276Z,21.42
2022-12-11T03:20:44.433Z,23.13
2022-12-11T03:23:23.081Z,21.08
2022-12-11T03:25:56.807Z,20.95
2022-12-11T03:28:30.529Z,20.05
2022-12-11T03:31:06.853Z,16.30
2022-12-11T03:33:38.942Z,16.67
2022-12-11T03:36:11.691Z,14.52
2022-12-11T03:38:49.315Z,17.45
2022-12-11T03:41:20.582Z,14.38
2022-12-11T03:43:52.804Z,12.95
2022-12-11T03:46:25.931Z,14.27
2022-12-11T03:48:57.965Z,14.98
2022-12-11T03:51:27.469Z,12.85
2022-12-11T03:53:57.450Z,15.30
2022-12-11T03:56:28.768Z,13.68
2022-12-11T03:58:57.380Z,12.98
2022-12-11T04:01:27.248Z,14.45
2022-12-11T04:03:55.849Z,13.30
2022-12-11T04:06:24.329Z,15.32
2022-12-11T04:08:52.756Z,18.45
2022-12-11T04:11:36.254Z,14.02
2022-12-11T04:14:23.594Z,16.23
2022-12-11T04:16:54.262Z,17.27
2022-12-11T04:19:40.891Z,16.10
2022-12-11T04:22:28.138Z,22.13
2022-12-11T04:24:56.490Z,18.45
2022-12-11T04:27:42.859Z,22.13
2022-12-11T04:30:15.052Z,17.85
2022-12-11T04:32:44.960Z,15.38
2022-12-11T04:35:14.342Z,22.08
2022-12-11T04:37:43.405Z,23.98
2022-12-11T04:40:14.754Z,19.88
2022-12-11T04:42:43.136Z,27.40
2022-12-11T04:45:12.961Z,23.52
2022-12-11T04:47:42.977Z,22.42
2022-12-11T04:50:15.272Z,27.42
2022-12-11T04:52:43.895Z,25.60
2022-12-11T04:55:13.721Z,23.25
2022-12-11T04:57:42.773Z,25.25
2022-12-11T05:00:13.796Z,27.02
2022-12-11T05:02:43.538Z,22.05
2022-12-11T05:05:14.729Z,22.52
2022-12-11T05:07:43.687Z,20.50
2022-12-11T05:10:12.284Z,21.10
2022-12-11T05:12:40.776Z,19.25
2022-12-11T05:15:10.218Z,22.10
2022-12-11T05:17:38.987Z,22.05
2022-12-11T05:20:08.423Z,19.95
2022-12-11T05:22:39.505Z,20.38
2022-12-11T05:25:09.524Z,19.83
2022-12-11T05:27:38.247Z,20.35
2022-12-11T05:30:08.221Z,19.52
2022-12-11T05:32:36.894Z,19.90
2022-12-11T05:35:05.697Z,25.55
2022-12-11T05:37:35.218Z,20.58
2022-12-11T05:40:06.674Z,19.08
2022-12-11T05:42:35.347Z,21.67
2022-12-11T05:45:03.825Z,22.33
2022-12-11T05:47:33.090Z,20.10
2022-12-11T05:50:01.627Z,18.27
2022-12-11T05:52:30.100Z,19.92
2022-12-11T05:54:58.509Z,19.13
2022-12-11T05:57:28.364Z,23.77
2022-12-11T05:59:56.751Z,21.13
2022-12-11T06:02:25.574Z,20.98
2022-12-11T06:04:54.139Z,21.00
2022-12-11T06:07:22.591Z,20.08
2022-12-11T06:09:51.065Z,18.58
2022-12-11T06:12:19.402Z,18.88
2022-12-11T06:14:49.516Z,21.38
2022-12-11T06:17:17.955Z,18.63
2022-12-11T06:19:46.368Z,19.40
2022-12-11T06:22:14.754Z,18.73
2022-12-11T06:24:43.525Z,18.95
2022-12-11T06:27:11.876Z,22.35
2022-12-11T06:29:40.386Z,18.90
2022-12-11T06:32:10.583Z,15.70
2022-12-11T06:34:39.062Z,18.58
2022-12-11T06:37:07.445Z,17.73
2022-12-11T06:39:35.763Z,19.13
2022-12-11T06:42:04.076Z,19.85
2022-12-11T06:44:32.487Z,17.85
2022-12-11T06:47:00.870Z,17.83
2022-12-11T06:49:30.648Z,18.17
2022-12-11T06:51:59.025Z,18.90
2022-12-11T06:54:28.171Z,20.67
2022-12-11T06:56:56.675Z,21.27
2022-12-11T06:59:26.383Z,19.88
2022-12-11T07:01:54.793Z,18.08
2022-12-11T07:04:25.105Z,18.88
2022-12-11T07:06:55.381Z,18.35
2022-12-11T07:09:24.158Z,18.23
2022-12-11T07:11:52.767Z,18.23
2022-12-11T07:14:21.410Z,18.65
2022-12-11T07:16:49.788Z,16.13
2022-12-11T07:19:18.668Z,17.00
2022-12-11T07:21:46.944Z,18.55
2022-12-11T07:24:17.236Z,20.75
2022-12-11T07:26:45.657Z,17.38
2022-12-11T07:29:14.013Z,17.67
2022-12-11T07:31:42.449Z,19.77
2022-12-11T07:34:14.664Z,19.42
2022-12-11T07:36:43.705Z,19.45
2022-12-11T07:39:13.501Z,20.17
2022-12-11T07:41:43.300Z,21.30
2022-12-11T07:44:12.170Z,19.08
2022-12-11T07:46:41.892Z,21.10
2022-12-11T07:49:10.324Z,19.55
2022-12-11T07:51:39.489Z,19.92
2022-12-11T07:54:10.849Z,20.45
2022-12-11T07:56:41.917Z,18.90
2022-12-11T07:59:14.345Z,23.25
2022-12-11T08:01:43.456Z,19.80
2022-12-11T08:04:15.913Z,18.00
2022-12-11T08:06:44.851Z,18.75
2022-12-11T08:09:21.082Z,20.65
2022-12-11T08:11:50.126Z,23.30
2022-12-11T08:14:20.111Z,19.88
2022-12-11T08:16:49.098Z,18.90
2022-12-11T08:19:18.573Z,19.17
2022-12-11T08:21:47.013Z,19.10
2022-12-11T08:24:16.599Z,17.67
2022-12-11T08:26:44.905Z,17.52
2022-12-11T08:29:13.196Z,19.50
2022-12-11T08:31:43.333Z,21.15
2022-12-11T08:34:14.284Z,17.88
2022-12-11T08:36:44.082Z,20.15
2022-12-11T08:39:12.434Z,18.85
2022-12-11T08:41:40.846Z,17.90
2022-12-11T08:44:16.351Z,17.90
2022-12-11T08:46:48.278Z,15.35
2022-12-11T08:49:16.625Z,13.88
2022-12-11T08:51:45.414Z,12.70
2022-12-11T08:54:13.674Z,12.90
2022-12-11T08:56:42.240Z,14.70
2022-12-11T08:59:11.098Z,12.13
2022-12-11T09:01:39.794Z,12.50
2022-12-11T09:04:09.728Z,12.80
2022-12-11T09:06:37.989Z,15.02
2022-12-11T09:09:06.738Z,14.02
2022-12-11T09:11:38.008Z,12.85
2022-12-11T09:14:08.258Z,12.75
2022-12-11T09:16:40.948Z,15.73
2022-12-11T09:19:14.422Z,13.43
2022-12-11T09:21:44.107Z,14.70
2022-12-11T09:24:13.997Z,15.43
2022-12-11T09:26:42.692Z,19.90
2022-12-11T09:29:13.737Z,17.63
2022-12-11T09:31:42.526Z,16.55
2022-12-11T09:34:14.717Z,15.60
2022-12-11T09:36:44.460Z,15.20
2022-12-11T09:39:13.869Z,14.65
2022-12-11T09:41:54.884Z,14.68
2022-12-11T09:44:36.211Z,14.65
2022-12-11T09:47:05.188Z,13.55
2022-12-11T09:49:41.351Z,12.07
2022-12-11T09:52:15.580Z,14.98
2022-12-11T09:54:50.600Z,15.15
2022-12-11T09:57:31.056Z,16.00
2022-12-11T10:00:15.432Z,14.15
2022-12-11T10:03:11.537Z,16.42
2022-12-11T10:05:48.967Z,14.15
2022-12-11T10:08:23.153Z,11.82
2022-12-11T10:11:00.413Z,19.70
2022-12-11T10:13:37.983Z,12.38
2022-12-11T10:16:16.943Z,10.60
2022-12-11T10:18:45.824Z,9.98
2022-12-11T10:21:18.332Z,12.93
2022-12-11T10:23:54.987Z,10.85
2022-12-11T10:26:24.488Z,8.82
2022-12-11T10:28:53.281Z,10.20
2022-12-11T10:31:26.506Z,13.15
2022-12-11T10:34:01.669Z,13.07
2022-12-11T10:36:33.131Z,11.68
2022-12-11T10:39:02.743Z,10.80
2022-12-11T10:41:39.872Z,14.48
2022-12-11T10:44:18.544Z,13.25
2022-12-11T10:46:48.425Z,11.90
2022-12-11T10:49:27.268Z,11.20
2022-12-11T10:52:01.462Z,10.40
2022-12-11T10:54:38.380Z,13.00
2022-12-11T10:57:10.206Z,11.02
2022-12-11T10:59:42.566Z,10.85
2022-12-11T11:02:23.393Z,11.63
2022-12-11T11:04:52.729Z,10.57
2022-12-11T11:07:25.397Z,9.68
2022-12-11T11:10:16.515Z,8.30
2022-12-11T11:12:46.693Z,10.15
2022-12-11T11:15:16.760Z,10.75
2022-12-11T11:17:54.637Z,10.82
2022-12-11T11:20:26.265Z,9.20
2022-12-11T11:22:58.376Z,10.50
2022-12-11T11:25:29.020Z,9.55
2022-12-11T11:27:59.422Z,9.15
2022-12-11T11:30:30.296Z,8.80
2022-12-11T11:33:02.416Z,16.75
2022-12-11T11:35:32.675Z,11.60
2022-12-11T11:38:19.588Z,12.45
2022-12-11T11:40:57.047Z,10.40
2022-12-11T11:43:37.092Z,8.30
2022-12-11T11:46:10.428Z,9.07
2022-12-11T11:48:47.240Z,12.68
2022-12-11T11:51:20.204Z,7.32
2022-12-11T11:53:53.045Z,8.77
2022-12-11T11:56:24.918Z,9.70
2022-12-11T11:59:04.598Z,9.15
2022-12-11T12:01:33.220Z,9.27
2022-12-11T12:04:04.300Z,9.65
2022-12-11T12:06:58.150Z,10.00
2022-12-11T12:09:43.732Z,8.10
2022-12-11T12:12:27.420Z,7.80
2022-12-11T12:15:18.402Z,10.65
2022-12-11T12:17:56.080Z,8.20
2022-12-11T12:20:31.072Z,6.20
2022-12-11T12:23:13.041Z,8.13
2022-12-11T12:25:50.446Z,9.00
2022-12-11T12:28:32.623Z,8.50
2022-12-11T12:31:14.859Z,8.82
2022-12-11T12:33:55.264Z,8.35
2022-12-11T12:36:29.121Z,8.98
2022-12-11T12:39:04.077Z,8.93
2022-12-11T12:41:42.904Z,9.40
2022-12-11T12:44:20.367Z,9.55
2022-12-11T12:46:59.326Z,9.18
2022-12-11T12:49:41.581Z,11.90
2022-12-11T12:52:16.989Z,9.02
2022-12-11T12:55:10.214Z,8.05
2022-12-11T12:57:43.913Z,9.35
2022-12-11T13:00:13.753Z,8.45
2022-12-11T13:02:50.702Z,8.80
2022-12-11T13:05:24.680Z,9.52
2022-12-11T13:07:56.023Z,14.93
2022-12-11T13:10:28.668Z,9.43
2022-12-11T13:12:58.799Z,9.53
2022-12-11T13:15:39.200Z,10.77
2022-12-11T13:18:32.640Z,11.30
2022-12-11T13:21:01.448Z,10.07
2022-12-11T13:23:31.426Z,11.05
2022-12-11T13:26:02.448Z,8.82
2022-12-11T13:28:35.008Z,10.45
2022-12-11T13:31:24.681Z,10.95
2022-12-11T13:33:56.151Z,9.95
2022-12-11T13:36:36.160Z,10.00
2022-12-11T13:39:08.242Z,10.50
2022-12-11T13:41:40.119Z,11.43
2022-12-11T13:44:16.953Z,12.38
2022-12-11T13:46:45.639Z,12.45
2022-12-11T13:49:22.709Z,10.98
2022-12-11T13:51:56.605Z,11.63
2022-12-11T13:54:26.119Z,12.95
2022-12-11T13:57:03.383Z,20.90
2022-12-11T13:59:36.197Z,12.45
2022-12-11T14:02:16.949Z,11.88
2022-12-11T14:04:45.992Z,11.32
2022-12-11T14:07:14.553Z,10.35
2022-12-11T14:09:47.149Z,9.43
2022-12-11T14:12:21.310Z,12.05
2022-12-11T14:14:54.719Z,12.98
2022-12-11T14:17:27.317Z,10.85
2022-12-11T14:19:57.618Z,10.45
2022-12-11T14:22:27.709Z,10.02
2022-12-11T14:24:57.457Z,11.60
2022-12-11T14:27:27.157Z,10.07
2022-12-11T14:29:57.405Z,9.82
2022-12-11T14:32:33.285Z,10.73
2022-12-11T14:35:03.549Z,12.63
2022-12-11T14:37:32.950Z,10.43
2022-12-11T14:40:04.363Z,9.13
2022-12-11T14:42:40.046Z,9.82
2022-12-11T14:45:20.812Z,12.38
2022-12-11T14:47:49.609Z,10.50
2022-12-11T14:50:23.109Z,9.82
2022-12-11T14:52:54.913Z,8.50
2022-12-11T14:55:26.613Z,8.45
2022-12-11T14:57:58.981Z,9.10
2022-12-11T15:00:32.073Z,9.68
2022-12-11T15:03:02.753Z,8.57
2022-12-11T15:05:37.159Z,12.00
2022-12-11T15:08:25.718Z,10.82
2022-12-11T15:11:04.272Z,9.00
2022-12-11T15:13:33.909Z,9.07
2022-12-11T15:16:05.178Z,10.02
2022-12-11T15:18:37.277Z,11.18
2022-12-11T15:21:09.780Z,9.65
2022-12-11T15:23:48.909Z,10.02
2022-12-11T15:26:17.237Z,13.70
2022-12-11T15:28:45.910Z,14.30
2022-12-11T15:31:28.519Z,10.40
2022-12-11T15:33:57.357Z,16.27
2022-12-11T15:36:32.202Z,14.70
2022-12-11T15:39:02.819Z,18.33
2022-12-11T15:41:34.783Z,22.70
2022-12-11T15:44:05.353Z,22.40
2022-12-11T15:46:38.496Z,17.48
2022-12-11T15:49:13.799Z,15.10
2022-12-11T15:51:43.558Z,13.35
2022-12-11T15:54:12.464Z,15.38
2022-12-11T15:56:40.969Z,15.32
2022-12-11T15:59:09.472Z,15.25
2022-12-11T16:01:39.366Z,14.75
2022-12-11T16:04:07.979Z,15.38
2022-12-11T16:06:36.240Z,14.88
2022-12-11T16:09:05.845Z,13.55
2022-12-11T16:11:34.232Z,16.73
2022-12-11T16:14:04.945Z,14.10
2022-12-11T16:16:33.779Z,21.98
2022-12-11T16:19:03.630Z,16.80
2022-12-11T16:21:32.653Z,18.15
2022-12-11T16:24:01.651Z,16.70
2022-12-11T16:26:30.573Z,14.70
2022-12-11T16:28:59.028Z,19.13
2022-12-11T16:31:27.418Z,18.33
2022-12-11T16:33:55.828Z,17.38
2022-12-11T16:36:26.882Z,18.73
2022-12-11T16:38:55.502Z,18.38
2022-12-11T16:41:25.094Z,16.10
2022-12-11T16:43:54.878Z,14.70
2022-12-11T16:46:25.378Z,16.95
2022-12-11T16:48:54.145Z,15.30
2022-12-11T16:51:23.046Z,18.58
2022-12-11T16:53:53.515Z,17.17
2022-12-11T16:56:21.816Z,18.67
2022-12-11T16:58:50.891Z,17.40
2022-12-11T17:01:19.252Z,16.05
2022-12-11T17:03:48.018Z,17.13
2022-12-11T17:06:18.426Z,19.38
2022-12-11T17:08:47.205Z,19.02
2022-12-11T17:11:19.174Z,17.60
2022-12-11T17:13:47.753Z,20.83
2022-12-11T17:16:18.387Z,17.95
2022-12-11T17:18:46.772Z,18.70
2022-12-11T17:21:17.288Z,18.20
2022-12-11T17:23:46.877Z,17.50
2022-12-11T17:26:17.102Z,20.75
2022-12-11T17:28:46.308Z,17.73
2022-12-11T17:31:17.686Z,16.75
2022-12-11T17:33:47.491Z,20.08
2022-12-11T17:36:17.396Z,17.35
2022-12-11T17:38:45.956Z,16.33
2022-12-11T17:41:20.544Z,21.20
2022-12-11T17:43:50.410Z,20.17
2022-12-11T17:46:19.940Z,22.15
2022-12-11T17:48:50.253Z,18.88
2022-12-11T17:51:25.007Z,20.55
2022-12-11T17:53:57.156Z,19.13
2022-12-11T17:56:29.550Z,25.65
2022-12-11T17:59:01.070Z,28.48
2022-12-11T18:01:31.222Z,28.65
2022-12-11T18:04:02.436Z,25.13
2022-12-11T18:06:32.893Z,21.25
2022-12-11T18:09:02.625Z,21.48
2022-12-11T18:11:34.301Z,24.65
2022-12-11T18:14:05.310Z,20.63
2022-12-11T18:16:37.374Z,21.02
2022-12-11T18:19:08.969Z,21.50
2022-12-11T18:21:42.800Z,21.10
2022-12-11T18:24:13.318Z,16.45
2022-12-11T18:26:44.833Z,35.47
2022-12-11T18:29:15.048Z,29.88
2022-12-11T18:31:44.949Z,23.33
2022-12-11T18:34:13.382Z,18.08
2022-12-11T18:36:42.632Z,18.52
2022-12-11T18:39:11.102Z,15.85
2022-12-11T18:41:40.118Z,15.32
2022-12-11T18:44:10.302Z,15.73
2022-12-11T18:46:39.731Z,16.30
2022-12-11T18:49:08.478Z,13.40
2022-12-11T18:51:37.732Z,12.07
2022-12-11T18:54:06.503Z,12.43
2022-12-11T18:56:34.852Z,11.98
2022-12-11T18:59:03.475Z,14.18
2022-12-11T19:01:34.652Z,14.52
2022-12-11T19:04:07.839Z,16.60
2022-12-11T19:06:40.127Z,15.55
2022-12-11T19:09:09.417Z,13.70
2022-12-11T19:11:40.157Z,13.45
2022-12-11T19:14:09.140Z,14.98
2022-12-11T19:16:41.141Z,17.75
2022-12-11T19:19:12.478Z,14.93
2022-12-11T19:21:41.777Z,14.77
2022-12-11T19:24:13.743Z,14.02
2022-12-11T19:26:42.780Z,18.13
2022-12-11T19:29:11.552Z,14.13
2022-12-11T19:31:41.710Z,14.48
2022-12-11T19:34:10.110Z,14.52
2022-12-11T19:36:38.926Z,14.40
2022-12-11T19:39:12.821Z,14.13
2022-12-11T19:41:44.205Z,12.85
2022-12-11T19:44:14.863Z,13.48
2022-12-11T19:46:46.236Z,11.57
2022-12-11T19:49:16.139Z,31.13
2022-12-11T19:51:45.857Z,48.03
2022-12-11T19:54:19.432Z,86.18
2022-12-11T19:59:20.462Z,33.88
2022-12-11T20:01:51.608Z,145.20
2022-12-11T20:04:22.024Z,137.20
2022-12-11T20:06:51.777Z,80.00
2022-12-11T20:09:21.717Z,49.42
2022-12-11T20:11:52.356Z,35.90
2022-12-11T20:14:25.644Z,19.73
2022-12-11T20:17:15.004Z,16.50
2022-12-11T20:19:45.755Z,12.32
2022-12-11T20:22:16.157Z,11.48
2022-12-11T20:24:47.559Z,10.75
2022-12-11T20:27:17.431Z,10.32
2022-12-11T20:29:47.548Z,10.40
2022-12-11T20:32:18.900Z,12.48
2022-12-11T20:34:48.599Z,15.18
2022-12-11T20:37:18.796Z,18.35
2022-12-11T20:39:48.748Z,11.70
2022-12-11T20:42:18.639Z,12.23
2022-12-11T20:44:49.361Z,12.02
2022-12-11T20:47:22.103Z,8.95
2022-12-11T20:49:52.755Z,9.63
2022-12-11T20:52:23.591Z,9.55
2022-12-11T20:54:53.350Z,9.63
2022-12-11T20:57:23.151Z,9.57
2022-12-11T20:59:52.751Z,8.68
2022-12-11T21:02:24.195Z,10.15
2022-12-11T21:04:53.963Z,9.05
2022-12-11T21:07:23.806Z,10.48
2022-12-11T21:09:53.545Z,11.70
2022-12-11T21:12:29.782Z,11.73
2022-12-11T21:15:01.206Z,11.75
2022-12-11T21:17:33.196Z,11.43
2022-12-11T21:20:03.010Z,9.30
2022-12-11T21:22:32.951Z,8.98
2022-12-11T21:25:02.516Z,10.27
2022-12-11T21:27:31.546Z,10.27
2022-12-11T21:29:59.830Z,11.13
2022-12-11T21:32:30.093Z,11.50
2022-12-11T21:35:01.825Z,10.50
2022-12-11T21:37:30.470Z,11.15
2022-12-11T21:40:00.724Z,9.88
2022-12-11T21:42:29.147Z,10.18
2022-12-11T21:45:37.569Z,10.43
2022-12-11T21:47:46.099Z,11.05
2022-12-11T21:50:15.975Z,10.48
2022-12-11T21:52:44.642Z,11.02
2022-12-11T21:55:13.917Z,16.15
2022-12-11T21:57:42.687Z,9.82
2022-12-11T22:00:12.730Z,8.80
2022-12-11T22:02:41.505Z,11.10
2022-12-11T22:05:11.119Z,9.57
2022-12-11T22:07:41.321Z,10.52
2022-12-11T22:10:10.813Z,9.38
2022-12-11T22:12:39.235Z,9.02
2022-12-11T22:15:09.418Z,8.98
2022-12-11T22:17:39.043Z,11.80
2022-12-11T22:20:08.065Z,10.90
2022-12-11T22:22:37.030Z,10.60
2022-12-11T22:25:10.079Z,10.93
2022-12-11T22:27:38.701Z,14.38
2022-12-11T22:30:08.421Z,12.15
2022-12-11T22:32:36.845Z,11.25
2022-12-11T22:35:06.184Z,11.60
2022-12-11T22:37:34.900Z,11.38
2022-12-11T22:40:03.610Z,11.27
2022-12-11T22:42:33.714Z,12.85
2022-12-11T22:45:02.049Z,11.68
2022-12-11T22:47:30.824Z,10.63
2022-12-11T22:49:59.146Z,11.07
2022-12-11T22:52:27.521Z,12.57
2022-12-11T22:54:55.846Z,14.82
2022-12-11T22:57:24.290Z,17.00
2022-12-11T22:59:54.465Z,20.50
2022-12-11T23:02:22.991Z,20.75
2022-12-11T23:04:51.405Z,22.10
2022-12-11T23:07:19.789Z,18.17
2022-12-11T23:09:48.242Z,20.63
2022-12-11T23:12:16.626Z,20.52
2022-12-11T23:14:45.056Z,17.20
2022-12-11T23:17:14.874Z,17.52
2022-12-11T23:19:43.399Z,14.20
2022-12-11T23:22:11.748Z,10.88
2022-12-11T23:24:40.192Z,12.60
2022-12-11T23:27:09.331Z,10.68
2022-12-11T23:29:37.734Z,9.35
2022-12-11T23:32:06.481Z,10.48
2022-12-11T23:34:36.560Z,11.35
2022-12-11T23:37:04.981Z,8.85
2022-12-11T23:39:33.421Z,9.65
2022-12-11T23:42:01.679Z,10.98
2022-12-11T23:44:30.083Z,9.63
2022-12-11T23:46:58.766Z,13.75
2022-12-11T23:49:27.291Z,11.73
2022-12-11T23:51:58.026Z,10.82
2022-12-11T23:54:26.447Z,13.05
2022-12-11T23:56:55.149Z,12.52
2022-12-11T23:59:23.493Z,13.82
